Time;durP1;ratioP1;P1;durP2;ratioP2;P2;SDS_P1;SDS_P2;PMS_P1;PMS_P2;Temp;Humidity;BMP_temperature;BMP_pressure;BME280_temperature;BME280_humidity;BME280_pressure;Samples;Min_cycle;Max_cycle;Signal;HPM_P1;HPM_P2
2021/07/27 00:01:25;;;;;;;40.15;26.75;;;;;;;17.26;81.11;101177.66;5061906;28;20323;-69
2021/07/27 00:03:50;;;;;;;40.35;26.35;;;;;;;17.32;80.30;101165.84;5062225;28;20041;-69
2021/07/27 00:06:16;;;;;;;48.15;27.27;;;;;;;17.32;80.70;101165.84;5072022;28;20033;-69
2021/07/27 00:08:41;;;;;;;49.03;28.70;;;;;;;17.17;81.48;101165.00;5081393;28;20046;-69
2021/07/27 00:11:08;;;;;;;47.72;28.42;;;;;;;17.27;80.61;101159.03;5063037;28;20032;-69
2021/07/27 00:13:33;;;;;;;47.38;28.77;;;;;;;16.87;82.32;101161.56;5078070;28;20040;-69
2021/07/27 00:15:59;;;;;;;40.90;27.20;;;;;;;17.18;81.62;101153.50;5063585;28;20340;-69
2021/07/27 00:18:24;;;;;;;52.28;29.75;;;;;;;16.94;82.45;101154.09;5069138;28;20044;-69
2021/07/27 00:20:50;;;;;;;50.80;31.30;;;;;;;16.69;83.06;101152.91;5076695;28;20055;-69
2021/07/27 00:23:15;;;;;;;47.08;30.60;;;;;;;16.78;82.21;101146.22;5081132;28;20323;-69
2021/07/27 00:25:42;;;;;;;51.40;30.73;;;;;;;16.91;81.99;101148.97;5067839;28;20056;-69
2021/07/27 00:28:07;;;;;;;53.47;30.48;;;;;;;17.01;81.42;101146.63;5061448;28;20090;-69
2021/07/27 00:30:32;;;;;;;55.25;30.45;;;;;;;16.95;81.84;101154.94;5072348;28;20036;-69
2021/07/27 00:32:58;;;;;;;50.33;31.20;;;;;;;16.58;83.03;101146.59;5081319;28;20093;-69
2021/07/27 00:35:24;;;;;;;57.78;31.50;;;;;;;16.62;83.16;101148.94;5067308;28;20048;-69
2021/07/27 00:38:07;;;;;;;56.67;33.03;;;;;;;16.44;83.73;101152.72;5071625;28;20024;-69
2021/07/27 00:40:33;;;;;;;63.78;32.83;;;;;;;16.58;83.96;101149.25;5070235;28;20033;-69
2021/07/27 00:43:02;;;;;;;58.50;33.10;;;;;;;16.92;81.98;101147.19;5061380;28;20029;-69
2021/07/27 00:45:27;;;;;;;;;;;;;;;16.61;83.56;101147.28;5070271;28;20024;-69
2021/07/27 00:47:52;;;;;;;65.27;36.17;;;;;;;16.73;83.22;101143.00;5067751;28;20167;-69
2021/07/27 00:50:18;;;;;;;66.15;35.53;;;;;;;16.61;83.65;101138.50;5063147;28;20037;-69
2021/07/27 00:52:43;;;;;;;74.82;38.58;;;;;;;16.49;83.98;101140.06;5060045;28;20040;-69
2021/07/27 00:55:09;;;;;;;65.90;37.15;;;;;;;16.57;84.01;101145.75;5065361;28;20247;-69
2021/07/27 00:57:34;;;;;;;80.00;38.55;;;;;;;16.53;83.70;101138.09;5068213;28;20086;-69
2021/07/27 01:00:00;;;;;;;75.05;40.72;;;;;;;16.58;83.38;101136.03;5063371;28;20099;-69
2021/07/27 01:04:51;;;;;;;65.05;36.15;;;;;;;17.21;82.65;101130.34;5041252;28;20416;-69
2021/07/27 01:07:18;;;;;;;79.90;39.17;;;;;;;16.96;81.61;101138.13;5081640;28;20039;-69
2021/07/27 01:09:43;;;;;;;75.95;38.95;;;;;;;16.86;83.33;101128.13;5079002;28;20055;-69
2021/07/27 01:12:09;;;;;;;72.85;37.78;;;;;;;17.42;80.36;101125.44;5061556;28;20051;-69
2021/07/27 01:14:34;;;;;;;80.55;40.70;;;;;;;16.98;82.01;101121.19;5060317;28;20039;-69
2021/07/27 01:16:59;;;;;;;76.85;39.38;;;;;;;16.97;81.45;101126.59;5077473;28;20104;-69
2021/07/27 01:39:27;;;;;;;91.22;42.28;;;;;;;17.24;81.62;101116.03;5059076;28;20059;-69
2021/07/27 01:43:45;;;;;;;90.63;43.80;;;;;;;16.65;83.42;101109.09;5059395;28;20040;-69
2021/07/27 01:46:14;;;;;;;95.80;46.78;;;;;;;16.62;83.91;101104.00;5062960;28;20029;-69
2021/07/27 01:48:39;;;;;;;101.32;47.05;;;;;;;16.50;84.27;101100.34;5057911;28;20239;-69
2021/07/27 01:51:04;;;;;;;74.55;38.35;;;;;;;16.84;83.36;101102.69;5061378;28;20056;-69
2021/07/27 01:53:44;;;;;;;87.10;43.00;;;;;;;17.04;82.16;101102.28;5063467;28;20219;-69
2021/07/27 01:56:10;;;;;;;89.60;44.00;;;;;;;17.02;81.96;101100.69;5071066;28;20287;-69
2021/07/27 01:58:35;;;;;;;77.45;39.05;;;;;;;17.54;80.04;101105.25;5059516;28;20033;-69
2021/07/27 02:01:01;;;;;;;86.55;42.90;;;;;;;17.01;81.60;101101.66;5064141;28;20112;-69
2021/07/27 02:03:26;;;;;;;85.47;42.63;;;;;;;17.18;81.05;101104.06;5078076;28;20040;-69
2021/07/27 02:05:51;;;;;;;93.30;45.83;;;;;;;17.07;81.75;101099.44;5079796;28;20047;-69
2021/07/27 02:08:17;;;;;;;61.45;34.15;;;;;;;17.84;79.16;101105.03;5059615;28;20054;-69
2021/07/27 02:10:46;;;;;;;60.47;32.40;;;;;;;18.31;77.03;101094.81;5060265;28;20045;-69
2021/07/27 02:13:24;;;;;;;52.92;28.52;;;;;;;18.22;78.03;101095.44;5078139;28;20028;-69
2021/07/27 02:15:50;;;;;;;58.55;32.20;;;;;;;18.19;77.55;101101.81;5080088;28;20027;-69
2021/07/27 02:18:15;;;;;;;52.33;29.38;;;;;;;18.45;76.21;101096.50;5077210;28;20318;-69
2021/07/27 02:20:44;;;;;;;49.15;28.95;;;;;;;18.30;77.38;101101.09;5080239;28;20341;-69
2021/07/27 02:23:09;;;;;;;43.15;23.75;;;;;;;18.47;76.30;101091.13;5062433;28;20037;-69
2021/07/27 02:25:34;;;;;;;55.03;32.38;;;;;;;18.83;74.74;101100.09;5060820;28;20049;-69
2021/07/27 02:28:00;;;;;;;51.03;30.90;;;;;;;18.82;75.24;101088.63;5070158;28;20063;-69
2021/07/27 02:30:26;;;;;;;56.83;32.60;;;;;;;18.86;75.62;101090.09;5059437;28;20056;-69
2021/07/27 02:32:52;;;;;;;54.97;34.03;;;;;;;18.93;74.14;101101.97;5076157;28;20044;-69
2021/07/27 02:35:24;;;;;;;50.97;31.52;;;;;;;19.12;73.92;101098.84;5071319;28;20067;-69
2021/07/27 02:37:50;;;;;;;67.60;38.42;;;;;;;18.01;76.97;101101.28;5066457;28;20029;-69
2021/07/27 02:40:15;;;;;;;82.68;40.78;;;;;;;17.50;79.56;101090.53;5063205;28;20218;-69
2021/07/27 02:42:41;;;;;;;48.15;29.17;;;;;;;18.62;75.88;101087.38;5073347;28;20127;-69
2021/07/27 02:45:08;;;;;;;60.83;34.72;;;;;;;18.30;76.95;101097.56;5062017;28;20070;-69
2021/07/27 02:47:33;;;;;;;69.43;38.10;;;;;;;18.41;75.99;101095.88;5067671;28;20271;-69
2021/07/27 02:49:59;;;;;;;53.80;33.08;;;;;;;18.46;75.23;101098.19;5063564;28;20343;-69
2021/07/27 02:52:24;;;;;;;29.35;19.20;;;;;;;19.18;72.55;101100.22;5063723;28;20051;-69
2021/07/27 02:54:50;;;;;;;57.47;36.53;;;;;;;18.79;73.81;101092.34;5063156;28;20185;-69
2021/07/27 02:57:15;;;;;;;27.00;17.58;;;;;;;19.29;73.05;101097.63;5068023;28;20415;-69
2021/07/27 02:59:41;;;;;;;55.45;34.70;;;;;;;18.02;76.47;101095.00;5062181;28;20029;-69
2021/07/27 03:02:06;;;;;;;54.20;33.90;;;;;;;17.72;79.30;101094.38;5075649;28;20039;-69
2021/07/27 03:04:31;;;;;;;62.15;33.67;;;;;;;17.54;79.06;101089.38;5061680;28;20096;-69
2021/07/27 03:06:57;;;;;;;77.45;40.55;;;;;;;17.07;80.79;101088.88;5069396;28;20081;-69
2021/07/27 03:09:30;;;;;;;70.05;34.50;;;;;;;17.46;79.74;101092.53;5062615;28;20040;-69
2021/07/27 03:11:56;;;;;;;68.30;37.08;;;;;;;17.57;78.76;101083.88;5065484;28;20028;-69
2021/07/27 03:14:24;;;;;;;40.30;25.05;;;;;;;17.44;79.40;101086.50;5078200;28;20059;-69
2021/07/27 03:16:49;;;;;;;21.40;15.02;;;;;;;17.96;77.85;101078.69;5069761;28;20036;-69
2021/07/27 03:19:18;;;;;;;66.28;36.38;;;;;;;17.04;80.49;101078.47;5062643;28;20112;-69
2021/07/27 03:21:43;;;;;;;65.45;36.83;;;;;;;17.22;79.87;101081.72;5062961;28;20219;-69
2021/07/27 03:24:09;;;;;;;47.53;28.80;;;;;;;17.87;78.16;101077.50;5076539;28;20067;-69
2021/07/27 03:26:34;;;;;;;49.63;30.27;;;;;;;17.40;78.72;101073.56;5068096;28;20215;-69
2021/07/27 03:28:59;;;;;;;78.43;37.60;;;;;;;17.13;80.41;101076.19;5066542;28;20143;-69
2021/07/27 03:31:28;;;;;;;56.90;34.08;;;;;;;17.78;77.04;101071.00;5063418;28;20052;-69
2021/07/27 03:33:54;;;;;;;37.70;22.92;;;;;;;17.63;77.99;101072.88;5073967;28;20390;-69
2021/07/27 03:36:20;;;;;;;48.38;31.95;;;;;;;18.36;74.52;101068.00;5079601;28;20028;-69
2021/07/27 03:38:45;;;;;;;56.67;35.05;;;;;;;17.41;78.29;101070.81;5075746;28;20222;-69
2021/07/27 03:41:11;;;;;;;24.45;18.38;;;;;;;18.19;76.71;101069.16;5082012;28;20066;-69
2021/07/27 03:43:37;;;;;;;55.35;31.70;;;;;;;17.84;76.48;101075.91;5075126;28;20074;-69
2021/07/27 03:46:03;;;;;;;55.38;33.13;;;;;;;17.94;75.90;101075.31;5082338;28;20047;-69
2021/07/27 03:48:28;;;;;;;44.72;29.30;;;;;;;18.10;76.92;101080.38;5079889;28;20327;-69
2021/07/27 03:50:54;;;;;;;23.45;17.55;;;;;;;18.66;74.59;101080.03;5082386;28;20319;-69
2021/07/27 03:53:23;;;;;;;28.30;18.20;;;;;;;18.83;73.89;101086.81;5072794;28;20124;-69
2021/07/27 03:55:48;;;;;;;12.45;10.25;;;;;;;19.81;70.70;101079.66;5060783;28;20413;-69
2021/07/27 03:58:14;;;;;;;47.53;29.30;;;;;;;18.01;74.49;101080.06;5067677;28;20021;-69
2021/07/27 04:00:39;;;;;;;29.85;20.88;;;;;;;18.63;74.83;101078.47;5080645;28;20079;-69
2021/07/27 04:03:05;;;;;;;20.92;16.65;;;;;;;19.06;71.88;101083.34;5061919;28;20067;-70
2021/07/27 04:05:34;;;;;;;22.88;15.35;;;;;;;19.42;71.42;101084.28;5061650;28;20048;-70
2021/07/27 04:07:59;;;;;;;34.40;23.05;;;;;;;18.53;73.86;101074.75;5075267;28;20028;-70
2021/07/27 04:10:25;;;;;;;32.00;23.20;;;;;;;18.53;73.56;101085.38;5061406;28;20275;-70
2021/07/27 04:12:51;;;;;;;37.47;24.23;;;;;;;18.30;74.15;101084.31;5064133;28;20037;-70
2021/07/27 04:15:16;;;;;;;43.63;27.58;;;;;;;18.08;75.27;101083.16;5081147;28;20036;-70
2021/07/27 04:17:41;;;;;;;21.75;15.32;;;;;;;18.98;73.57;101075.13;5081543;28;20048;-70
2021/07/27 04:20:07;;;;;;;46.47;29.15;;;;;;;18.35;72.94;101077.72;5080580;28;20214;-69
2021/07/27 04:22:33;;;;;;;38.97;26.67;;;;;;;18.17;74.24;101071.06;5068812;28;20055;-69
2021/07/27 04:24:58;;;;;;;22.35;16.17;;;;;;;19.27;71.74;101069.50;5076897;28;20040;-69
2021/07/27 04:27:24;;;;;;;20.88;15.07;;;;;;;19.04;71.26;101069.34;5081023;28;20040;-69
2021/07/27 04:29:50;;;;;;;40.53;28.70;;;;;;;18.15;73.85;101072.97;5064878;28;20328;-69
2021/07/27 04:32:15;;;;;;;48.42;31.02;;;;;;;17.57;76.04;101065.34;5069062;28;20036;-69
2021/07/27 04:34:41;;;;;;;35.25;23.63;;;;;;;18.33;75.54;101070.84;5075130;28;20081;-69
2021/07/27 04:37:06;;;;;;;30.92;20.98;;;;;;;18.87;71.93;101075.88;5079932;28;20036;-69
2021/07/27 04:39:31;;;;;;;21.27;16.55;;;;;;;18.98;72.42;101078.63;5059898;28;20286;-69
2021/07/27 04:41:57;;;;;;;26.23;19.27;;;;;;;18.78;72.63;101076.53;5061527;28;20036;-69
2021/07/27 04:44:22;;;;;;;35.63;26.40;;;;;;;18.34;75.04;101083.16;5060026;28;20105;-69
2021/07/27 04:46:48;;;;;;;24.35;18.15;;;;;;;18.78;71.66;101074.72;5057464;28;20223;-69
2021/07/27 04:49:14;;;;;;;30.73;23.30;;;;;;;18.75;73.73;101077.56;5073118;28;20036;-69
2021/07/27 04:51:39;;;;;;;36.35;24.60;;;;;;;19.68;68.93;101078.81;5064569;28;20100;-69
2021/07/27 04:54:05;;;;;;;25.83;21.05;;;;;;;19.25;70.52;101076.72;5074721;28;20025;-69
2021/07/27 04:56:31;;;;;;;39.28;26.95;;;;;;;18.93;70.41;101075.44;5060335;28;20347;-69
2021/07/27 04:58:57;;;;;;;38.75;30.85;;;;;;;17.99;74.40;101078.47;5064719;28;20020;-69
2021/07/27 05:01:22;;;;;;;38.33;26.35;;;;;;;18.32;73.28;101077.09;5080207;28;20096;-69
2021/07/27 05:03:48;;;;;;;17.85;14.32;;;;;;;19.67;69.90;101072.69;5066104;28;20043;-69
2021/07/27 05:06:13;;;;;;;18.13;15.30;;;;;;;19.80;69.61;101069.97;5080932;28;20072;-69
2021/07/27 05:08:42;;;;;;;29.48;23.42;;;;;;;19.34;70.69;101068.91;5069841;28;20020;-69
2021/07/27 05:11:07;;;;;;;30.33;22.90;;;;;;;19.21;71.21;101062.84;5061114;28;20221;-69
2021/07/27 05:13:32;;;;;;;43.58;33.38;;;;;;;18.76;71.46;101059.88;5060230;28;20029;-69
2021/07/27 05:16:02;;;;;;;22.23;17.13;;;;;;;19.82;69.63;101061.88;5061193;28;20215;-69
2021/07/27 05:18:28;;;;;;;32.05;24.70;;;;;;;19.21;69.51;101062.84;5074867;28;20366;-69
2021/07/27 05:20:53;;;;;;;11.93;10.73;;;;;;;20.23;67.79;101069.31;5063633;28;20036;-69
2021/07/27 05:23:19;;;;;;;49.28;33.55;;;;;;;18.68;70.65;101064.84;5060081;28;20066;-69
2021/07/27 05:25:44;;;;;;;41.83;31.67;;;;;;;18.68;70.46;101062.22;5074447;28;20028;-69
2021/07/27 05:28:09;;;;;;;20.35;18.05;;;;;;;20.39;68.32;101068.97;5078759;28;20099;-69
2021/07/27 05:30:35;;;;;;;28.83;22.67;;;;;;;20.06;67.46;101059.16;5042165;28;20028;-67
2021/07/27 05:33:03;;;;;;;33.63;22.45;;;;;;;20.38;68.23;101064.63;5065395;28;20086;-69
2021/07/27 05:35:28;;;;;;;17.17;9.55;;;;;;;21.53;63.44;101066.97;5055527;28;20315;-71
2021/07/27 05:37:54;;;;;;;39.58;29.90;;;;;;;19.37;68.95;101060.75;5063357;28;20024;-69
2021/07/27 05:40:19;;;;;;;16.27;9.98;;;;;;;21.77;64.71;101064.06;5055849;28;20104;-69
2021/07/27 05:42:45;;;;;;;39.10;26.98;;;;;;;19.67;66.88;101063.88;5055322;28;20037;-68
2021/07/27 05:45:10;;;;;;;29.50;21.00;;;;;;;20.88;67.35;101065.09;5071096;28;20033;-66
2021/07/27 05:47:36;;;;;;;20.10;13.60;;;;;;;22.06;62.34;101066.91;5070811;28;20036;-66
2021/07/27 05:50:01;;;;;;;24.98;18.30;;;;;;;20.54;66.50;101061.59;5073815;28;20021;-66
2021/07/27 05:52:26;;;;;;;19.20;12.45;;;;;;;21.09;66.19;101059.84;5059546;28;20078;-67
2021/07/27 05:54:52;;;;;;;20.33;11.93;;;;;;;21.54;64.13;101060.66;5071799;28;20041;-67
2021/07/27 05:57:18;;;;;;;21.17;13.90;;;;;;;21.75;63.29;101063.34;5059515;28;20063;-66
2021/07/27 05:59:43;;;;;;;16.85;14.48;;;;;;;20.96;65.48;101058.31;5062008;28;20335;-68
2021/07/27 06:02:09;;;;;;;20.55;14.40;;;;;;;21.12;65.41;101056.09;5054842;28;20040;-67
2021/07/27 06:04:35;;;;;;;19.25;14.32;;;;;;;21.29;64.33;101058.19;5061008;28;20029;-67
2021/07/27 06:07:01;;;;;;;20.33;11.73;;;;;;;21.70;64.10;101062.91;5058336;28;20110;-68
2021/07/27 06:09:27;;;;;;;18.05;13.05;;;;;;;21.51;64.29;101053.78;5062978;28;20036;-68
2021/07/27 06:11:52;;;;;;;17.02;12.02;;;;;;;21.88;63.45;101057.84;5061148;28;20039;-67
2021/07/27 06:14:17;;;;;;;19.35;14.88;;;;;;;21.50;64.30;101052.09;5054798;28;20047;-67
2021/07/27 06:16:43;;;;;;;21.13;14.05;;;;;;;21.37;63.19;101059.38;5078313;28;20394;-67
2021/07/27 06:19:09;;;;;;;18.35;13.05;;;;;;;21.53;63.02;101056.31;5056138;28;20328;-67
2021/07/27 06:21:38;;;;;;;17.60;11.02;;;;;;;22.27;61.76;101056.25;5056551;28;20155;-67
2021/07/27 06:24:07;;;;;;;26.25;12.98;;;;;;;21.97;62.50;101063.22;5078590;28;20028;-67
2021/07/27 06:26:33;;;;;;;13.05;11.60;;;;;;;22.09;61.45;101065.81;5057613;28;20070;-67
2021/07/27 06:29:00;;;;;;;14.45;11.57;;;;;;;22.16;62.07;101065.16;5060920;28;20040;-67
2021/07/27 06:31:26;;;;;;;16.45;11.98;;;;;;;21.97;62.45;101060.53;5055915;28;20591;-68
2021/07/27 06:33:51;;;;;;;13.35;10.45;;;;;;;21.69;62.71;101066.56;5047062;28;20034;-68
2021/07/27 06:36:17;;;;;;;20.30;13.13;;;;;;;21.24;63.40;101071.03;5042908;28;20105;-68
2021/07/27 06:38:42;;;;;;;19.75;12.85;;;;;;;21.31;64.05;101079.38;5059171;28;20091;-68
2021/07/27 06:41:08;;;;;;;14.75;11.80;;;;;;;21.54;63.30;101080.19;5059257;28;20029;-68
2021/07/27 06:43:34;;;;;;;20.35;13.90;;;;;;;21.03;64.49;101070.16;5058459;28;20118;-68
2021/07/27 06:46:00;;;;;;;11.57;10.10;;;;;;;22.27;61.54;101071.44;5050987;28;20052;-68
2021/07/27 06:48:25;;;;;;;13.90;10.43;;;;;;;22.18;60.51;101073.88;5043612;28;20047;-67
2021/07/27 06:50:51;;;;;;;10.30;8.63;;;;;;;22.62;60.44;101074.50;5041555;28;20083;-69
2021/07/27 06:53:17;;;;;;;14.45;8.95;;;;;;;22.59;60.23;101072.13;5050272;28;20084;-69
2021/07/27 06:55:42;;;;;;;12.88;9.02;;;;;;;22.70;60.57;101078.34;5064279;28;20047;-69
2021/07/27 06:58:07;;;;;;;23.20;8.60;;;;;;;22.72;60.61;101077.22;5063672;28;20139;-70
2021/07/27 07:00:33;;;;;;;20.52;10.13;;;;;;;22.66;60.56;101071.59;5056769;28;20347;-68
2021/07/27 07:02:58;;;;;;;17.75;12.95;;;;;;;22.15;61.81;101079.47;5058471;28;20040;-68
2021/07/27 07:05:24;;;;;;;24.95;10.25;;;;;;;22.89;60.77;101085.56;5056923;28;20037;-68
2021/07/27 07:07:49;;;;;;;14.27;9.32;;;;;;;22.92;60.80;101080.81;5057427;28;20083;-68
2021/07/27 07:10:15;;;;;;;21.25;12.73;;;;;;;23.17;58.42;101079.44;5056947;28;20047;-69
2021/07/27 07:12:40;;;;;;;19.27;9.65;;;;;;;23.09;60.28;101084.66;5050005;28;20032;-69
2021/07/27 07:15:06;;;;;;;28.83;14.55;;;;;;;22.61;61.58;101085.31;5048590;28;20065;-69
2021/07/27 07:17:31;;;;;;;13.73;8.63;;;;;;;23.28;59.82;101085.66;5058599;28;20044;-68
2021/07/27 07:19:57;;;;;;;28.48;16.38;;;;;;;22.57;61.44;101089.25;5058496;28;20033;-69
2021/07/27 07:22:22;;;;;;;17.92;11.30;;;;;;;22.93;60.29;101089.66;5056226;28;20376;-67
2021/07/27 07:24:48;;;;;;;15.95;9.75;;;;;;;;;;5059650;28;20037;-68
2021/07/27 07:27:13;;;;;;;13.20;9.27;;;;;;;22.88;59.21;101086.53;5042176;28;20035;-67
2021/07/27 07:29:39;;;;;;;17.25;9.35;;;;;;;22.93;58.89;101082.47;5058629;28;20029;-68
2021/07/27 07:32:04;;;;;;;16.67;9.25;;;;;;;23.08;58.90;101087.47;5055421;28;20059;-69
2021/07/27 07:34:31;;;;;;;31.15;10.98;;;;;;;22.89;59.68;101086.41;5058822;28;20032;-68
2021/07/27 07:36:56;;;;;;;19.02;10.20;;;;;;;23.19;58.59;101079.31;5052447;28;20027;-70
2021/07/27 07:39:22;;;;;;;18.38;10.27;;;;;;;23.07;58.94;101080.44;5031756;28;20036;-70
2021/07/27 07:41:47;;;;;;;19.60;8.95;;;;;;;23.20;58.91;101083.69;5057106;28;20036;-69
2021/07/27 07:44:13;;;;;;;16.77;8.85;;;;;;;23.33;58.57;101091.44;5047993;28;20056;-68
2021/07/27 07:46:41;;;;;;;15.57;9.38;;;;;;;23.34;58.99;101091.31;5043133;28;20270;-69
2021/07/27 07:49:06;;;;;;;22.98;9.32;;;;;;;23.51;59.13;101092.41;5050747;28;20045;-69
2021/07/27 07:51:33;;;;;;;25.42;11.73;;;;;;;23.69;58.07;101086.38;5046343;28;20046;-70
2021/07/27 07:54:00;;;;;;;18.50;8.98;;;;;;;23.25;58.78;101081.44;5052816;28;20277;-70
2021/07/27 07:56:25;;;;;;;19.92;9.93;;;;;;;23.42;59.17;101084.41;5047936;28;20055;-70
2021/07/27 07:58:51;;;;;;;16.85;12.88;;;;;;;22.77;60.06;101082.16;5049403;28;20099;-70
2021/07/27 08:01:17;;;;;;;15.85;9.55;;;;;;;23.36;59.17;101085.81;5049125;28;20040;-71
2021/07/27 08:03:43;;;;;;;14.77;12.23;;;;;;;23.35;59.16;101086.78;5051704;28;20191;-70
2021/07/27 08:06:08;;;;;;;16.58;8.65;;;;;;;23.06;60.38;101084.91;5055293;28;20044;-70
2021/07/27 08:08:36;;;;;;;12.30;9.35;;;;;;;23.40;59.09;101092.56;5053741;28;20041;-70
2021/07/27 08:11:03;;;;;;;13.77;9.60;;;;;;;23.15;60.23;101094.78;5047387;28;20078;-69
2021/07/27 08:13:28;;;;;;;19.25;9.82;;;;;;;22.73;60.83;101089.59;5055297;28;20441;-70
2021/07/27 08:15:54;;;;;;;18.35;9.80;;;;;;;23.22;59.57;101088.91;5061566;28;20037;-69
2021/07/27 08:18:20;;;;;;;12.88;10.13;;;;;;;23.46;58.88;101089.31;5053272;28;20103;-69
2021/07/27 08:20:45;;;;;;;16.73;9.90;;;;;;;23.33;59.45;101086.94;5060336;28;20029;-70
2021/07/27 08:23:10;;;;;;;21.33;11.48;;;;;;;23.23;59.45;101088.75;5057425;28;20040;-71
2021/07/27 08:25:36;;;;;;;26.95;12.93;;;;;;;22.91;60.17;101091.63;5039282;28;20208;-70
2021/07/27 08:28:01;;;;;;;23.30;12.15;;;;;;;22.64;61.28;101085.06;5061479;28;20040;-69
2021/07/27 08:30:27;;;;;;;16.05;9.57;;;;;;;23.07;60.20;101085.78;5058900;28;20035;-70
2021/07/27 08:32:53;;;;;;;19.58;10.02;;;;;;;23.24;59.47;101092.28;5059372;28;20097;-70
2021/07/27 08:35:21;;;;;;;19.42;8.77;;;;;;;23.55;58.42;101091.16;5060574;28;20059;-70
2021/07/27 08:37:46;;;;;;;14.35;9.35;;;;;;;23.54;58.16;101094.00;5043556;28;20323;-70
2021/07/27 08:40:12;;;;;;;14.95;10.65;;;;;;;23.45;58.43;101098.34;5056707;28;20029;-72
2021/07/27 08:42:39;;;;;;;23.45;12.32;;;;;;;23.06;59.89;101100.94;5043437;28;20254;-70
2021/07/27 08:45:06;;;;;;;26.25;9.68;;;;;;;23.53;58.65;101100.31;5051601;28;20227;-71
2021/07/27 08:47:32;;;;;;;14.80;9.35;;;;;;;23.51;58.54;101100.44;5054977;28;20288;-71
2021/07/27 08:49:59;;;;;;;16.17;11.32;;;;;;;23.20;58.67;101091.69;5055596;28;20037;-70
2021/07/27 08:52:24;;;;;;;11.50;7.80;;;;;;;23.36;58.91;101100.00;5067447;28;20037;-70
2021/07/27 08:54:50;;;;;;;17.38;11.10;;;;;;;23.02;59.62;101104.84;5054195;28;20053;-71
2021/07/27 08:57:15;;;;;;;21.08;13.40;;;;;;;22.87;60.56;101107.06;5060835;28;20212;-70
2021/07/27 08:59:41;;;;;;;23.05;14.50;;;;;;;22.86;60.47;101102.69;5061159;28;20033;-69
2021/07/27 09:02:06;;;;;;;20.88;11.00;;;;;;;23.32;58.89;101106.63;5052101;28;20105;-70
2021/07/27 09:04:32;;;;;;;18.30;11.65;;;;;;;23.12;59.65;101105.75;5035650;28;20347;-70
2021/07/27 09:07:01;;;;;;;16.00;10.52;;;;;;;23.00;60.26;101107.66;5051460;28;20055;-70
2021/07/27 09:09:33;;;;;;;21.65;13.35;;;;;;;23.13;60.11;101109.25;5057946;28;20435;-70
2021/07/27 09:12:00;;;;;;;14.35;11.43;;;;;;;23.56;57.93;101114.22;5051326;28;20925;-70
2021/07/27 09:14:25;;;;;;;13.60;11.80;;;;;;;23.00;59.30;101112.16;5053024;28;20032;-70
2021/07/27 09:16:52;;;;;;;14.95;10.32;;;;;;;23.40;58.72;101111.28;5058510;28;20047;-71
2021/07/27 09:19:18;;;;;;;10.68;8.07;;;;;;;23.10;59.56;101112.19;5039610;28;20036;-69
2021/07/27 09:21:43;;;;;;;10.43;9.35;;;;;;;23.45;58.70;101117.06;5059042;28;20033;-70
2021/07/27 09:24:21;;;;;;;14.88;10.63;;;;;;;22.79;61.12;101122.91;5062818;28;20385;-72
2021/07/27 09:26:56;;;;;;;13.82;10.27;;;;;;;23.39;58.90;101117.59;5041374;28;20016;-69
2021/07/27 09:29:23;;;;;;;12.20;10.93;;;;;;;23.40;59.21;101126.47;5055177;28;20099;-70
2021/07/27 09:31:52;;;;;;;19.50;11.40;;;;;;;23.48;58.92;101127.44;5053299;28;20040;-71
2021/07/27 09:34:17;;;;;;;19.65;11.30;;;;;;;23.48;59.23;101135.47;5055133;28;20041;-68
2021/07/27 09:36:43;;;;;;;13.45;10.70;;;;;;;22.63;62.69;101142.09;5057447;28;20387;-69
2021/07/27 09:39:08;;;;;;;16.48;12.63;;;;;;;22.12;64.40;101142.88;5059993;28;20091;-68
2021/07/27 09:41:34;;;;;;;17.77;10.57;;;;;;;22.47;62.87;101139.91;5056154;28;20104;-68
2021/07/27 09:43:59;;;;;;;14.63;11.50;;;;;;;22.71;62.73;101142.28;5056827;28;20315;-69
2021/07/27 09:46:25;;;;;;;13.68;12.32;;;;;;;22.74;62.24;101143.81;5051623;28;20078;-68
2021/07/27 09:48:51;;;;;;;17.70;13.18;;;;;;;22.18;65.22;101155.72;5059645;28;20033;-69
2021/07/27 09:51:17;;;;;;;13.98;9.20;;;;;;;23.25;60.15;101155.41;5044060;28;20044;-70
2021/07/27 09:53:43;;;;;;;11.45;9.18;;;;;;;22.63;62.40;101166.13;5058493;28;20053;-69
2021/07/27 09:56:08;;;;;;;14.80;9.63;;;;;;;23.16;60.08;101159.75;5050206;28;20090;-69
2021/07/27 09:58:34;;;;;;;12.88;7.25;;;;;;;22.49;61.54;101153.13;5051179;28;20388;-70
2021/07/27 10:01:03;;;;;;;12.40;8.52;;;;;;;22.79;61.32;101152.28;5052545;28;20082;-69
2021/07/27 10:03:32;;;;;;;11.02;7.50;;;;;;;22.51;61.65;101151.16;5049667;28;20202;-69
2021/07/27 10:06:03;;;;;;;9.75;6.03;;;;;;;21.97;62.97;101151.19;5043018;28;20033;-69
2021/07/27 10:08:30;;;;;;;17.17;7.55;;;;;;;21.70;61.60;101151.69;5039224;28;20033;-69
2021/07/27 10:11:11;;;;;;;11.52;6.68;;;;;;;21.76;62.74;101148.53;5056497;28;20048;-69
2021/07/27 10:13:40;;;;;;;8.75;7.25;;;;;;;22.55;61.18;101160.59;5045804;28;20287;-70
2021/07/27 10:16:05;;;;;;;12.63;7.35;;;;;;;22.00;62.92;101160.78;5054663;28;20040;-69
2021/07/27 10:18:32;;;;;;;12.23;6.57;;;;;;;21.64;62.78;101163.72;5055350;28;20160;-70
2021/07/27 10:21:20;;;;;;;18.35;7.85;;;;;;;20.94;65.88;101162.25;5056783;28;20033;-69
2021/07/27 10:23:45;;;;;;;13.57;5.03;;;;;;;20.26;68.31;101155.97;5056409;28;20059;-69
2021/07/27 10:26:11;;;;;;;15.05;5.30;;;;;;;20.75;66.17;101148.69;5050489;28;20332;-69
2021/07/27 10:28:37;;;;;;;17.90;5.28;;;;;;;19.75;70.15;101150.03;5041929;28;20100;-71
2021/07/27 10:31:06;;;;;;;21.48;5.00;;;;;;;19.22;72.68;101140.66;5049492;28;20028;-70
2021/07/27 10:33:32;;;;;;;16.48;5.07;;;;;;;19.40;71.84;101141.13;5054056;28;20090;-70
2021/07/27 10:35:57;;;;;;;18.70;4.78;;;;;;;19.33;71.75;101138.91;5055169;28;20045;-70
2021/07/27 10:38:23;;;;;;;14.82;4.45;;;;;;;19.21;73.71;101136.31;5053645;28;20051;-70
2021/07/27 10:40:49;;;;;;;12.60;4.88;;;;;;;19.21;74.59;101136.31;5040566;28;20041;-69
2021/07/27 10:43:24;;;;;;;14.13;4.72;;;;;;;19.36;73.63;101138.69;5039201;28;20024;-69
2021/07/27 10:46:02;;;;;;;15.98;5.30;;;;;;;19.60;73.02;101137.00;5059369;28;20084;-70
2021/07/27 10:48:34;;;;;;;12.73;4.50;;;;;;;19.91;71.02;101136.44;5055355;28;20040;-70
2021/07/27 10:51:00;;;;;;;17.40;4.30;;;;;;;19.80;71.81;101130.25;5057771;28;20033;-69
2021/07/27 10:53:25;;;;;;;15.23;4.40;;;;;;;19.96;70.75;101125.47;5039390;28;20037;-70
2021/07/27 10:55:51;;;;;;;14.50;5.60;;;;;;;20.53;70.43;101129.91;5059036;28;20036;-71
2021/07/27 10:58:17;;;;;;;16.45;4.55;;;;;;;19.54;74.03;101128.53;5057237;28;20222;-73
2021/07/27 11:00:43;;;;;;;19.67;6.85;;;;;;;20.07;71.61;101124.66;5061290;28;20037;-72
2021/07/27 11:03:08;;;;;;;10.48;4.47;;;;;;;20.05;70.64;101126.59;5062853;28;20025;-73
2021/07/27 11:05:34;;;;;;;10.90;5.40;;;;;;;20.43;69.47;101128.94;5071922;28;20037;-72
2021/07/27 11:08:00;;;;;;;11.25;5.78;;;;;;;20.74;68.40;101112.41;5066884;28;20044;-73
2021/07/27 11:10:25;;;;;;;11.85;7.10;;;;;;;21.43;65.50;101113.00;5057101;28;20273;-72
2021/07/27 11:12:51;;;;;;;11.13;4.38;;;;;;;20.42;69.25;101111.28;5040363;28;20033;-72
2021/07/27 11:15:26;;;;;;;15.02;4.50;;;;;;;19.84;69.96;101111.28;5043278;28;20037;-72
2021/07/27 11:17:54;;;;;;;10.40;3.58;;;;;;;19.85;70.38;101115.66;5039627;28;20025;-73
2021/07/27 11:20:22;;;;;;;12.60;5.07;;;;;;;20.59;68.52;101111.78;5057425;28;20119;-70
2021/07/27 11:22:57;;;;;;;13.63;5.05;;;;;;;20.97;67.11;101119.41;5057745;28;20030;-70
2021/07/27 11:25:24;;;;;;;9.90;3.70;;;;;;;19.84;71.43;101129.03;5057379;28;20037;-71
2021/07/27 11:27:49;;;;;;;14.82;6.72;;;;;;;21.97;63.72;101121.03;5052862;28;20116;-70
2021/07/27 11:30:15;;;;;;;13.07;4.60;;;;;;;22.03;64.08;101123.22;5060771;28;20040;-70
2021/07/27 11:32:47;;;;;;;15.35;4.68;;;;;;;22.60;62.24;101123.69;5058966;28;20045;-70